Terminal Aerodrome Forecast
Issued by NWS

Home | Current Version | Previous Version | Text Only | Print | Product List | Glossary On
Versions: 1 2 3 4 5 6 7 8 9 10 11 12 13
000
FTUS44 KTSA 020000 AAA
TAFMLC
TAF AMD
KMLC 020007Z 0200/0224 VRB05KT P6SM SKC
     FM020600 16006KT P6SM BKN250
     FM021500 20012G20KT P6SM OVC250
     FM022100 22014KT P6SM OVC250
      TEMPO 0221/0224 2SM +TSRA BKN030CB=

USA.gov is the U.S. government's official web portal to all federal, state and local government web resources and services.